sensor_id;sensor_type;location;lat;lon;timestamp;P1;durP1;ratioP1;P2;durP2;ratioP2
35602;SDS011;21725;50.836;4.368;2023-05-07T00:02:28;12.05;;;4.72;;
35602;SDS011;21725;50.836;4.368;2023-05-07T00:05:29;10.60;;;4.28;;
35602;SDS011;21725;50.836;4.368;2023-05-07T00:08:30;13.35;;;5.72;;
35602;SDS011;21725;50.836;4.368;2023-05-07T00:11:34;8.85;;;4.30;;
35602;SDS011;21725;50.836;4.368;2023-05-07T00:14:35;10.88;;;3.88;;
35602;SDS011;21725;50.836;4.368;2023-05-07T00:17:36;15.68;;;5.25;;
35602;SDS011;21725;50.836;4.368;2023-05-07T00:20:37;8.57;;;3.88;;
35602;SDS011;21725;50.836;4.368;2023-05-07T00:23:37;14.40;;;4.13;;
35602;SDS011;21725;50.836;4.368;2023-05-07T00:26:38;9.35;;;3.95;;
35602;SDS011;21725;50.836;4.368;2023-05-07T00:29:39;8.88;;;3.85;;
35602;SDS011;21725;50.836;4.368;2023-05-07T00:32:40;8.27;;;3.88;;
35602;SDS011;21725;50.836;4.368;2023-05-07T00:35:41;11.20;;;3.67;;
35602;SDS011;21725;50.836;4.368;2023-05-07T00:38:42;13.38;;;3.80;;
35602;SDS011;21725;50.836;4.368;2023-05-07T00:41:43;13.07;;;5.13;;
35602;SDS011;21725;50.836;4.368;2023-05-07T00:44:44;8.10;;;4.05;;
35602;SDS011;21725;50.836;4.368;2023-05-07T00:47:44;10.02;;;5.32;;
35602;SDS011;21725;50.836;4.368;2023-05-07T00:50:45;7.05;;;3.38;;
35602;SDS011;21725;50.836;4.368;2023-05-07T00:53:47;9.57;;;4.10;;
35602;SDS011;21725;50.836;4.368;2023-05-07T00:56:48;10.55;;;4.65;;
35602;SDS011;21725;50.836;4.368;2023-05-07T00:59:50;11.57;;;3.83;;
35602;SDS011;21725;50.836;4.368;2023-05-07T01:02:51;6.82;;;3.22;;
35602;SDS011;21725;50.836;4.368;2023-05-07T01:05:55;10.40;;;4.80;;
35602;SDS011;21725;50.836;4.368;2023-05-07T01:08:58;8.73;;;3.90;;
35602;SDS011;21725;50.836;4.368;2023-05-07T01:15:55;9.82;;;4.30;;
35602;SDS011;21725;50.836;4.368;2023-05-07T01:27:11;7.05;;;4.00;;
35602;SDS011;21725;50.836;4.368;2023-05-07T01:31:00;10.45;;;4.68;;
35602;SDS011;21725;50.836;4.368;2023-05-07T01:34:26;7.95;;;3.90;;
35602;SDS011;21725;50.836;4.368;2023-05-07T01:38:12;9.75;;;3.75;;
35602;SDS011;21725;50.836;4.368;2023-05-07T01:41:57;10.75;;;3.95;;
35602;SDS011;21725;50.836;4.368;2023-05-07T02:01:54;10.38;;;3.75;;
35602;SDS011;21725;50.836;4.368;2023-05-07T02:08:35;12.00;;;4.13;;
35602;SDS011;21725;50.836;4.368;2023-05-07T02:12:17;14.68;;;4.50;;
35602;SDS011;21725;50.836;4.368;2023-05-07T02:19:47;12.10;;;4.22;;
35602;SDS011;21725;50.836;4.368;2023-05-07T02:22:59;12.30;;;4.15;;
35602;SDS011;21725;50.836;4.368;2023-05-07T02:26:11;10.25;;;3.83;;
35602;SDS011;21725;50.836;4.368;2023-05-07T02:29:22;8.80;;;3.83;;
35602;SDS011;21725;50.836;4.368;2023-05-07T02:37:12;10.20;;;4.35;;
35602;SDS011;21725;50.836;4.368;2023-05-07T02:40:35;12.57;;;4.80;;
35602;SDS011;21725;50.836;4.368;2023-05-07T02:43:54;9.63;;;4.07;;
35602;SDS011;21725;50.836;4.368;2023-05-07T02:47:29;8.00;;;3.88;;
35602;SDS011;21725;50.836;4.368;2023-05-07T02:50:34;11.07;;;3.88;;
35602;SDS011;21725;50.836;4.368;2023-05-07T03:08:28;11.32;;;4.03;;
35602;SDS011;21725;50.836;4.368;2023-05-07T03:11:39;11.98;;;5.45;;
35602;SDS011;21725;50.836;4.368;2023-05-07T03:15:09;13.05;;;4.22;;
35602;SDS011;21725;50.836;4.368;2023-05-07T03:18:17;10.07;;;4.15;;
35602;SDS011;21725;50.836;4.368;2023-05-07T03:21:41;11.13;;;3.28;;
35602;SDS011;21725;50.836;4.368;2023-05-07T03:28:43;13.13;;;3.88;;
35602;SDS011;21725;50.836;4.368;2023-05-07T03:36:04;12.38;;;4.93;;
35602;SDS011;21725;50.836;4.368;2023-05-07T03:39:37;10.65;;;4.05;;
35602;SDS011;21725;50.836;4.368;2023-05-07T03:43:23;11.05;;;4.25;;
35602;SDS011;21725;50.836;4.368;2023-05-07T03:46:59;14.63;;;5.50;;
35602;SDS011;21725;50.836;4.368;2023-05-07T03:50:27;14.32;;;4.68;;
35602;SDS011;21725;50.836;4.368;2023-05-07T03:57:32;10.80;;;4.05;;
35602;SDS011;21725;50.836;4.368;2023-05-07T04:01:08;8.18;;;3.67;;
35602;SDS011;21725;50.836;4.368;2023-05-07T04:04:34;13.60;;;4.35;;
35602;SDS011;21725;50.836;4.368;2023-05-07T04:15:36;10.73;;;3.60;;
35602;SDS011;21725;50.836;4.368;2023-05-07T04:22:29;10.57;;;4.10;;
35602;SDS011;21725;50.836;4.368;2023-05-07T04:25:59;10.23;;;3.70;;
35602;SDS011;21725;50.836;4.368;2023-05-07T04:29:03;9.18;;;3.40;;
35602;SDS011;21725;50.836;4.368;2023-05-07T04:32:43;11.30;;;3.60;;
35602;SDS011;21725;50.836;4.368;2023-05-07T04:36:00;10.23;;;3.33;;
35602;SDS011;21725;50.836;4.368;2023-05-07T04:43:04;14.30;;;4.65;;
35602;SDS011;21725;50.836;4.368;2023-05-07T04:49:28;9.48;;;3.88;;
35602;SDS011;21725;50.836;4.368;2023-05-07T04:52:49;14.55;;;4.20;;
35602;SDS011;21725;50.836;4.368;2023-05-07T04:56:27;13.52;;;3.38;;
35602;SDS011;21725;50.836;4.368;2023-05-07T04:59:38;8.57;;;3.20;;
35602;SDS011;21725;50.836;4.368;2023-05-07T05:06:38;12.57;;;3.80;;
35602;SDS011;21725;50.836;4.368;2023-05-07T05:10:01;7.90;;;3.60;;
35602;SDS011;21725;50.836;4.368;2023-05-07T05:21:18;9.70;;;4.15;;
35602;SDS011;21725;50.836;4.368;2023-05-07T05:28:25;11.48;;;3.70;;
35602;SDS011;21725;50.836;4.368;2023-05-07T05:35:37;8.77;;;3.42;;
35602;SDS011;21725;50.836;4.368;2023-05-07T05:42:33;13.55;;;3.97;;
35602;SDS011;21725;50.836;4.368;2023-05-07T05:45:39;8.98;;;3.30;;
35602;SDS011;21725;50.836;4.368;2023-05-07T05:48:58;9.57;;;3.47;;
35602;SDS011;21725;50.836;4.368;2023-05-07T05:59:54;13.20;;;4.10;;
35602;SDS011;21725;50.836;4.368;2023-05-07T06:07:28;11.43;;;4.38;;
35602;SDS011;21725;50.836;4.368;2023-05-07T06:10:50;19.25;;;6.13;;
35602;SDS011;21725;50.836;4.368;2023-05-07T06:14:18;12.65;;;4.72;;
35602;SDS011;21725;50.836;4.368;2023-05-07T06:17:21;8.95;;;4.97;;
35602;SDS011;21725;50.836;4.368;2023-05-07T06:23:54;19.70;;;5.45;;
35602;SDS011;21725;50.836;4.368;2023-05-07T06:26:55;12.88;;;4.75;;
35602;SDS011;21725;50.836;4.368;2023-05-07T06:33:38;9.95;;;5.40;;
35602;SDS011;21725;50.836;4.368;2023-05-07T06:37:12;14.05;;;5.13;;
35602;SDS011;21725;50.836;4.368;2023-05-07T06:44:22;19.25;;;6.07;;
35602;SDS011;21725;50.836;4.368;2023-05-07T06:51:30;12.32;;;4.43;;
35602;SDS011;21725;50.836;4.368;2023-05-07T06:54:54;10.50;;;4.72;;
35602;SDS011;21725;50.836;4.368;2023-05-07T07:02:44;16.65;;;5.47;;
35602;SDS011;21725;50.836;4.368;2023-05-07T07:06:10;13.25;;;6.20;;
35602;SDS011;21725;50.836;4.368;2023-05-07T07:09:49;13.65;;;5.72;;
35602;SDS011;21725;50.836;4.368;2023-05-07T07:13:32;9.55;;;5.50;;
35602;SDS011;21725;50.836;4.368;2023-05-07T07:16:54;8.38;;;3.97;;
35602;SDS011;21725;50.836;4.368;2023-05-07T07:20:18;9.90;;;5.45;;
35602;SDS011;21725;50.836;4.368;2023-05-07T07:23:39;30.98;;;19.20;;
35602;SDS011;21725;50.836;4.368;2023-05-07T07:26:40;17.63;;;10.15;;
35602;SDS011;21725;50.836;4.368;2023-05-07T07:29:50;11.68;;;5.50;;
35602;SDS011;21725;50.836;4.368;2023-05-07T07:32:59;12.40;;;5.40;;
35602;SDS011;21725;50.836;4.368;2023-05-07T07:36:13;15.77;;;5.53;;
35602;SDS011;21725;50.836;4.368;2023-05-07T07:39:41;13.82;;;7.60;;
35602;SDS011;21725;50.836;4.368;2023-05-07T07:46:34;15.23;;;6.53;;
35602;SDS011;21725;50.836;4.368;2023-05-07T07:49:37;11.52;;;7.50;;
35602;SDS011;21725;50.836;4.368;2023-05-07T07:52:41;18.65;;;12.02;;
35602;SDS011;21725;50.836;4.368;2023-05-07T07:55:52;16.48;;;9.00;;
35602;SDS011;21725;50.836;4.368;2023-05-07T08:02:48;37.53;;;23.60;;
35602;SDS011;21725;50.836;4.368;2023-05-07T08:06:10;16.63;;;8.75;;
35602;SDS011;21725;50.836;4.368;2023-05-07T08:09:40;12.60;;;7.05;;
35602;SDS011;21725;50.836;4.368;2023-05-07T08:16:57;13.48;;;7.50;;
35602;SDS011;21725;50.836;4.368;2023-05-07T08:20:53;11.30;;;7.38;;
35602;SDS011;21725;50.836;4.368;2023-05-07T08:24:13;20.40;;;15.75;;
35602;SDS011;21725;50.836;4.368;2023-05-07T08:30:38;12.68;;;4.78;;
35602;SDS011;21725;50.836;4.368;2023-05-07T08:33:42;10.38;;;5.35;;
35602;SDS011;21725;50.836;4.368;2023-05-07T08:37:03;10.93;;;5.10;;
35602;SDS011;21725;50.836;4.368;2023-05-07T08:40:27;19.65;;;11.88;;
35602;SDS011;21725;50.836;4.368;2023-05-07T08:43:41;7.43;;;5.10;;
35602;SDS011;21725;50.836;4.368;2023-05-07T08:47:01;10.18;;;5.03;;
35602;SDS011;21725;50.836;4.368;2023-05-07T08:50:27;11.43;;;5.28;;
35602;SDS011;21725;50.836;4.368;2023-05-07T08:53:52;8.13;;;3.83;;
35602;SDS011;21725;50.836;4.368;2023-05-07T08:56:55;7.30;;;3.50;;
35602;SDS011;21725;50.836;4.368;2023-05-07T09:00:34;7.95;;;4.03;;
35602;SDS011;21725;50.836;4.368;2023-05-07T09:04:13;8.13;;;3.53;;
35602;SDS011;21725;50.836;4.368;2023-05-07T09:07:38;7.15;;;3.97;;
35602;SDS011;21725;50.836;4.368;2023-05-07T09:11:28;9.27;;;4.13;;
35602;SDS011;21725;50.836;4.368;2023-05-07T09:14:39;8.70;;;4.13;;
35602;SDS011;21725;50.836;4.368;2023-05-07T09:17:49;8.38;;;4.35;;
35602;SDS011;21725;50.836;4.368;2023-05-07T09:21:17;9.50;;;4.55;;
35602;SDS011;21725;50.836;4.368;2023-05-07T09:28:47;10.75;;;4.55;;
35602;SDS011;21725;50.836;4.368;2023-05-07T09:31:56;7.28;;;3.67;;
35602;SDS011;21725;50.836;4.368;2023-05-07T09:35:27;10.82;;;4.32;;
35602;SDS011;21725;50.836;4.368;2023-05-07T09:38:28;9.80;;;5.13;;
35602;SDS011;21725;50.836;4.368;2023-05-07T09:41:30;8.65;;;5.25;;
35602;SDS011;21725;50.836;4.368;2023-05-07T09:44:54;7.75;;;3.83;;
35602;SDS011;21725;50.836;4.368;2023-05-07T09:48:05;7.43;;;3.33;;
35602;SDS011;21725;50.836;4.368;2023-05-07T09:51:15;7.53;;;3.35;;
35602;SDS011;21725;50.836;4.368;2023-05-07T09:54:25;11.13;;;3.85;;
35602;SDS011;21725;50.836;4.368;2023-05-07T09:57:29;5.15;;;3.10;;
35602;SDS011;21725;50.836;4.368;2023-05-07T10:00:30;7.70;;;3.50;;
35602;SDS011;21725;50.836;4.368;2023-05-07T10:03:32;6.88;;;3.03;;
35602;SDS011;21725;50.836;4.368;2023-05-07T10:06:37;9.88;;;3.85;;
35602;SDS011;21725;50.836;4.368;2023-05-07T10:09:40;7.55;;;3.80;;
35602;SDS011;21725;50.836;4.368;2023-05-07T10:12:44;6.50;;;3.53;;
35602;SDS011;21725;50.836;4.368;2023-05-07T10:15:45;7.40;;;4.00;;
35602;SDS011;21725;50.836;4.368;2023-05-07T10:18:50;8.57;;;3.58;;
35602;SDS011;21725;50.836;4.368;2023-05-07T10:24:59;12.07;;;5.40;;
35602;SDS011;21725;50.836;4.368;2023-05-07T10:28:16;6.47;;;3.83;;
35602;SDS011;21725;50.836;4.368;2023-05-07T10:35:21;8.98;;;4.40;;
35602;SDS011;21725;50.836;4.368;2023-05-07T10:38:32;5.70;;;3.13;;
35602;SDS011;21725;50.836;4.368;2023-05-07T10:41:51;10.27;;;4.43;;
35602;SDS011;21725;50.836;4.368;2023-05-07T10:44:52;7.00;;;3.65;;
35602;SDS011;21725;50.836;4.368;2023-05-07T10:48:06;9.38;;;3.70;;
35602;SDS011;21725;50.836;4.368;2023-05-07T10:51:18;7.13;;;3.75;;
35602;SDS011;21725;50.836;4.368;2023-05-07T10:54:26;6.47;;;2.70;;
35602;SDS011;21725;50.836;4.368;2023-05-07T10:57:40;6.72;;;3.15;;
35602;SDS011;21725;50.836;4.368;2023-05-07T11:01:08;3.28;;;2.47;;
35602;SDS011;21725;50.836;4.368;2023-05-07T11:04:29;6.47;;;2.75;;
35602;SDS011;21725;50.836;4.368;2023-05-07T11:07:41;5.65;;;3.03;;
35602;SDS011;21725;50.836;4.368;2023-05-07T11:11:07;7.38;;;4.05;;
35602;SDS011;21725;50.836;4.368;2023-05-07T11:14:29;7.63;;;4.07;;
35602;SDS011;21725;50.836;4.368;2023-05-07T11:17:58;7.10;;;3.58;;
35602;SDS011;21725;50.836;4.368;2023-05-07T11:21:15;5.63;;;2.78;;
35602;SDS011;21725;50.836;4.368;2023-05-07T11:28:07;4.47;;;2.63;;
35602;SDS011;21725;50.836;4.368;2023-05-07T11:31:12;4.55;;;2.42;;
35602;SDS011;21725;50.836;4.368;2023-05-07T11:34:19;8.35;;;2.85;;
35602;SDS011;21725;50.836;4.368;2023-05-07T11:37:25;6.20;;;2.95;;
35602;SDS011;21725;50.836;4.368;2023-05-07T11:40:27;6.60;;;3.28;;
35602;SDS011;21725;50.836;4.368;2023-05-07T11:43:28;5.50;;;3.40;;
35602;SDS011;21725;50.836;4.368;2023-05-07T11:46:29;4.25;;;2.50;;
35602;SDS011;21725;50.836;4.368;2023-05-07T11:49:31;7.68;;;2.85;;
35602;SDS011;21725;50.836;4.368;2023-05-07T11:52:34;6.45;;;3.47;;
35602;SDS011;21725;50.836;4.368;2023-05-07T11:55:35;7.55;;;3.60;;
35602;SDS011;21725;50.836;4.368;2023-05-07T11:58:37;6.28;;;2.90;;
35602;SDS011;21725;50.836;4.368;2023-05-07T12:01:38;5.07;;;2.63;;
35602;SDS011;21725;50.836;4.368;2023-05-07T12:04:43;5.30;;;2.95;;
35602;SDS011;21725;50.836;4.368;2023-05-07T12:07:44;8.23;;;3.75;;
35602;SDS011;21725;50.836;4.368;2023-05-07T12:10:46;4.10;;;2.38;;
35602;SDS011;21725;50.836;4.368;2023-05-07T12:13:48;7.45;;;2.70;;
35602;SDS011;21725;50.836;4.368;2023-05-07T12:16:49;8.93;;;3.60;;
35602;SDS011;21725;50.836;4.368;2023-05-07T12:19:52;6.30;;;3.20;;
35602;SDS011;21725;50.836;4.368;2023-05-07T12:22:53;5.72;;;2.63;;
35602;SDS011;21725;50.836;4.368;2023-05-07T12:25:55;6.50;;;3.08;;
35602;SDS011;21725;50.836;4.368;2023-05-07T12:28:57;4.00;;;2.60;;
35602;SDS011;21725;50.836;4.368;2023-05-07T12:31:58;7.90;;;3.03;;
35602;SDS011;21725;50.836;4.368;2023-05-07T12:35:01;6.00;;;3.00;;
35602;SDS011;21725;50.836;4.368;2023-05-07T12:38:02;6.00;;;3.35;;
35602;SDS011;21725;50.836;4.368;2023-05-07T12:41:09;5.00;;;3.45;;
35602;SDS011;21725;50.836;4.368;2023-05-07T12:44:12;6.72;;;4.63;;
35602;SDS011;21725;50.836;4.368;2023-05-07T12:47:15;6.68;;;5.15;;
35602;SDS011;21725;50.836;4.368;2023-05-07T12:50:16;8.30;;;4.50;;
35602;SDS011;21725;50.836;4.368;2023-05-07T12:53:19;7.35;;;4.80;;
35602;SDS011;21725;50.836;4.368;2023-05-07T12:56:22;9.75;;;5.15;;
35602;SDS011;21725;50.836;4.368;2023-05-07T12:59:30;9.02;;;5.75;;
35602;SDS011;21725;50.836;4.368;2023-05-07T13:02:40;5.88;;;4.57;;
35602;SDS011;21725;50.836;4.368;2023-05-07T13:05:41;10.05;;;5.75;;
35602;SDS011;21725;50.836;4.368;2023-05-07T13:08:45;11.38;;;6.72;;
35602;SDS011;21725;50.836;4.368;2023-05-07T13:11:48;8.77;;;6.30;;
35602;SDS011;21725;50.836;4.368;2023-05-07T13:14:54;10.75;;;6.65;;
35602;SDS011;21725;50.836;4.368;2023-05-07T13:18:00;9.40;;;6.00;;
35602;SDS011;21725;50.836;4.368;2023-05-07T13:21:01;7.13;;;5.13;;
35602;SDS011;21725;50.836;4.368;2023-05-07T13:24:02;8.00;;;6.55;;
35602;SDS011;21725;50.836;4.368;2023-05-07T13:27:03;7.80;;;6.68;;
35602;SDS011;21725;50.836;4.368;2023-05-07T13:30:04;8.20;;;6.47;;
35602;SDS011;21725;50.836;4.368;2023-05-07T13:33:08;7.80;;;6.80;;
35602;SDS011;21725;50.836;4.368;2023-05-07T13:36:11;8.02;;;5.70;;
35602;SDS011;21725;50.836;4.368;2023-05-07T13:39:12;11.02;;;8.05;;
35602;SDS011;21725;50.836;4.368;2023-05-07T13:42:14;11.13;;;7.78;;
35602;SDS011;21725;50.836;4.368;2023-05-07T13:45:18;8.15;;;7.22;;
35602;SDS011;21725;50.836;4.368;2023-05-07T13:48:25;10.80;;;7.45;;
35602;SDS011;21725;50.836;4.368;2023-05-07T13:51:28;10.02;;;8.20;;
35602;SDS011;21725;50.836;4.368;2023-05-07T13:54:31;10.68;;;8.30;;
35602;SDS011;21725;50.836;4.368;2023-05-07T13:57:35;9.85;;;7.88;;
35602;SDS011;21725;50.836;4.368;2023-05-07T14:00:36;9.13;;;7.68;;
35602;SDS011;21725;50.836;4.368;2023-05-07T14:03:40;12.93;;;9.63;;
35602;SDS011;21725;50.836;4.368;2023-05-07T14:06:43;12.23;;;9.27;;
35602;SDS011;21725;50.836;4.368;2023-05-07T14:09:44;9.93;;;8.13;;
35602;SDS011;21725;50.836;4.368;2023-05-07T14:12:46;10.93;;;9.00;;
35602;SDS011;21725;50.836;4.368;2023-05-07T14:15:49;13.18;;;10.20;;
35602;SDS011;21725;50.836;4.368;2023-05-07T14:18:59;12.15;;;10.27;;
35602;SDS011;21725;50.836;4.368;2023-05-07T14:22:00;11.70;;;10.50;;
35602;SDS011;21725;50.836;4.368;2023-05-07T14:25:03;13.90;;;10.23;;
35602;SDS011;21725;50.836;4.368;2023-05-07T14:28:04;9.65;;;7.55;;
35602;SDS011;21725;50.836;4.368;2023-05-07T14:31:05;10.60;;;8.85;;
35602;SDS011;21725;50.836;4.368;2023-05-07T14:34:06;12.18;;;10.02;;
35602;SDS011;21725;50.836;4.368;2023-05-07T14:37:14;11.27;;;8.93;;
35602;SDS011;21725;50.836;4.368;2023-05-07T14:40:15;11.55;;;9.30;;
35602;SDS011;21725;50.836;4.368;2023-05-07T14:43:16;10.70;;;8.55;;
35602;SDS011;21725;50.836;4.368;2023-05-07T14:46:21;10.48;;;8.07;;
35602;SDS011;21725;50.836;4.368;2023-05-07T14:49:24;11.25;;;7.82;;
35602;SDS011;21725;50.836;4.368;2023-05-07T14:52:28;9.55;;;8.20;;
35602;SDS011;21725;50.836;4.368;2023-05-07T14:55:29;11.57;;;7.90;;
35602;SDS011;21725;50.836;4.368;2023-05-07T14:58:30;9.40;;;7.20;;
35602;SDS011;21725;50.836;4.368;2023-05-07T15:01:31;8.55;;;7.43;;
35602;SDS011;21725;50.836;4.368;2023-05-07T15:04:32;10.02;;;7.40;;
35602;SDS011;21725;50.836;4.368;2023-05-07T15:07:33;10.55;;;7.47;;
35602;SDS011;21725;50.836;4.368;2023-05-07T15:10:35;10.00;;;7.03;;
35602;SDS011;21725;50.836;4.368;2023-05-07T15:13:42;10.75;;;7.13;;
35602;SDS011;21725;50.836;4.368;2023-05-07T15:16:45;8.75;;;7.03;;
35602;SDS011;21725;50.836;4.368;2023-05-07T15:19:46;8.55;;;6.28;;
35602;SDS011;21725;50.836;4.368;2023-05-07T15:22:53;9.82;;;6.72;;
35602;SDS011;21725;50.836;4.368;2023-05-07T15:25:58;9.63;;;7.00;;
35602;SDS011;21725;50.836;4.368;2023-05-07T15:29:09;8.05;;;6.45;;
35602;SDS011;21725;50.836;4.368;2023-05-07T15:32:13;7.80;;;7.00;;
35602;SDS011;21725;50.836;4.368;2023-05-07T15:35:14;9.15;;;6.95;;
35602;SDS011;21725;50.836;4.368;2023-05-07T15:38:21;8.15;;;6.47;;
35602;SDS011;21725;50.836;4.368;2023-05-07T15:41:24;9.82;;;6.43;;
35602;SDS011;21725;50.836;4.368;2023-05-07T15:44:28;7.38;;;5.78;;
35602;SDS011;21725;50.836;4.368;2023-05-07T15:47:34;8.35;;;6.18;;
35602;SDS011;21725;50.836;4.368;2023-05-07T15:50:57;7.45;;;5.45;;
35602;SDS011;21725;50.836;4.368;2023-05-07T15:57:47;11.73;;;7.78;;
35602;SDS011;21725;50.836;4.368;2023-05-07T16:05:17;10.38;;;6.93;;
35602;SDS011;21725;50.836;4.368;2023-05-07T16:08:20;7.95;;;6.70;;
35602;SDS011;21725;50.836;4.368;2023-05-07T16:11:40;9.73;;;7.65;;
35602;SDS011;21725;50.836;4.368;2023-05-07T16:27:17;10.00;;;8.50;;
35602;SDS011;21725;50.836;4.368;2023-05-07T16:51:28;8.50;;;6.13;;
35602;SDS011;21725;50.836;4.368;2023-05-07T16:54:54;7.60;;;5.50;;
35602;SDS011;21725;50.836;4.368;2023-05-07T16:58:24;9.20;;;5.68;;
35602;SDS011;21725;50.836;4.368;2023-05-07T17:05:57;9.95;;;6.25;;
35602;SDS011;21725;50.836;4.368;2023-05-07T17:13:26;9.95;;;5.90;;
35602;SDS011;21725;50.836;4.368;2023-05-07T17:25:07;10.23;;;6.43;;
35602;SDS011;21725;50.836;4.368;2023-05-07T17:32:34;9.63;;;5.68;;
35602;SDS011;21725;50.836;4.368;2023-05-07T17:36:15;10.38;;;5.07;;
35602;SDS011;21725;50.836;4.368;2023-05-07T17:39:30;7.13;;;5.35;;
35602;SDS011;21725;50.836;4.368;2023-05-07T17:42:50;7.60;;;4.60;;
35602;SDS011;21725;50.836;4.368;2023-05-07T17:53:27;7.90;;;5.75;;
35602;SDS011;21725;50.836;4.368;2023-05-07T17:56:50;8.05;;;5.00;;
35602;SDS011;21725;50.836;4.368;2023-05-07T18:03:46;9.18;;;5.38;;
35602;SDS011;21725;50.836;4.368;2023-05-07T18:06:47;7.85;;;5.78;;
35602;SDS011;21725;50.836;4.368;2023-05-07T18:10:23;8.65;;;5.93;;
35602;SDS011;21725;50.836;4.368;2023-05-07T18:13:24;7.38;;;5.50;;
35602;SDS011;21725;50.836;4.368;2023-05-07T18:16:25;8.18;;;6.05;;
35602;SDS011;21725;50.836;4.368;2023-05-07T18:19:29;10.70;;;6.25;;
35602;SDS011;21725;50.836;4.368;2023-05-07T18:25:52;11.60;;;7.07;;
35602;SDS011;21725;50.836;4.368;2023-05-07T18:28:56;7.45;;;5.57;;
35602;SDS011;21725;50.836;4.368;2023-05-07T18:32:19;10.82;;;6.43;;
35602;SDS011;21725;50.836;4.368;2023-05-07T18:35:20;10.48;;;6.75;;
35602;SDS011;21725;50.836;4.368;2023-05-07T18:38:23;9.40;;;6.53;;
35602;SDS011;21725;50.836;4.368;2023-05-07T18:41:28;9.98;;;7.63;;
35602;SDS011;21725;50.836;4.368;2023-05-07T18:44:40;7.85;;;5.82;;
35602;SDS011;21725;50.836;4.368;2023-05-07T18:47:41;7.97;;;6.00;;
35602;SDS011;21725;50.836;4.368;2023-05-07T18:50:42;9.88;;;6.10;;
35602;SDS011;21725;50.836;4.368;2023-05-07T18:53:43;10.75;;;6.00;;
35602;SDS011;21725;50.836;4.368;2023-05-07T18:56:44;8.95;;;7.03;;
35602;SDS011;21725;50.836;4.368;2023-05-07T18:59:45;14.88;;;6.88;;
35602;SDS011;21725;50.836;4.368;2023-05-07T19:02:46;9.13;;;5.63;;
35602;SDS011;21725;50.836;4.368;2023-05-07T19:05:46;11.23;;;6.47;;
35602;SDS011;21725;50.836;4.368;2023-05-07T19:08:47;8.27;;;5.93;;
35602;SDS011;21725;50.836;4.368;2023-05-07T19:11:48;8.30;;;5.80;;
35602;SDS011;21725;50.836;4.368;2023-05-07T19:14:48;11.90;;;7.68;;
35602;SDS011;21725;50.836;4.368;2023-05-07T19:17:50;9.73;;;6.70;;
35602;SDS011;21725;50.836;4.368;2023-05-07T19:20:54;12.73;;;8.32;;
35602;SDS011;21725;50.836;4.368;2023-05-07T19:23:55;10.95;;;6.88;;
35602;SDS011;21725;50.836;4.368;2023-05-07T19:26:56;14.05;;;9.70;;
35602;SDS011;21725;50.836;4.368;2023-05-07T19:29:57;13.93;;;9.25;;
35602;SDS011;21725;50.836;4.368;2023-05-07T19:32:58;10.43;;;8.15;;
35602;SDS011;21725;50.836;4.368;2023-05-07T19:36:00;12.57;;;8.60;;
35602;SDS011;21725;50.836;4.368;2023-05-07T19:39:01;14.48;;;8.73;;
35602;SDS011;21725;50.836;4.368;2023-05-07T19:42:01;11.93;;;8.80;;
35602;SDS011;21725;50.836;4.368;2023-05-07T19:45:03;9.43;;;6.75;;
35602;SDS011;21725;50.836;4.368;2023-05-07T19:48:04;10.93;;;6.63;;
35602;SDS011;21725;50.836;4.368;2023-05-07T19:51:05;11.90;;;6.88;;
35602;SDS011;21725;50.836;4.368;2023-05-07T19:54:06;12.65;;;6.90;;
35602;SDS011;21725;50.836;4.368;2023-05-07T19:57:06;8.63;;;7.68;;
35602;SDS011;21725;50.836;4.368;2023-05-07T20:00:07;11.75;;;8.02;;
35602;SDS011;21725;50.836;4.368;2023-05-07T20:03:09;10.85;;;8.05;;
35602;SDS011;21725;50.836;4.368;2023-05-07T20:06:16;10.55;;;8.73;;
35602;SDS011;21725;50.836;4.368;2023-05-07T20:09:22;10.70;;;8.80;;
35602;SDS011;21725;50.836;4.368;2023-05-07T20:12:23;13.13;;;9.57;;
35602;SDS011;21725;50.836;4.368;2023-05-07T20:15:24;10.52;;;9.00;;
35602;SDS011;21725;50.836;4.368;2023-05-07T20:18:25;15.73;;;11.38;;
35602;SDS011;21725;50.836;4.368;2023-05-07T20:21:27;15.00;;;11.10;;
35602;SDS011;21725;50.836;4.368;2023-05-07T20:24:27;14.98;;;11.40;;
35602;SDS011;21725;50.836;4.368;2023-05-07T20:27:28;14.05;;;10.10;;
35602;SDS011;21725;50.836;4.368;2023-05-07T20:30:29;12.80;;;11.20;;
35602;SDS011;21725;50.836;4.368;2023-05-07T20:37:24;14.07;;;10.75;;
35602;SDS011;21725;50.836;4.368;2023-05-07T20:40:26;12.57;;;11.18;;
35602;SDS011;21725;50.836;4.368;2023-05-07T20:43:32;18.35;;;11.00;;
35602;SDS011;21725;50.836;4.368;2023-05-07T20:46:33;15.77;;;11.27;;
35602;SDS011;21725;50.836;4.368;2023-05-07T20:49:35;14.27;;;10.98;;
35602;SDS011;21725;50.836;4.368;2023-05-07T20:52:36;13.45;;;11.15;;
35602;SDS011;21725;50.836;4.368;2023-05-07T20:55:37;13.20;;;11.85;;
35602;SDS011;21725;50.836;4.368;2023-05-07T20:58:37;15.45;;;12.30;;
35602;SDS011;21725;50.836;4.368;2023-05-07T21:01:38;14.32;;;11.63;;
35602;SDS011;21725;50.836;4.368;2023-05-07T21:04:41;14.20;;;12.57;;
35602;SDS011;21725;50.836;4.368;2023-05-07T21:07:42;17.42;;;13.13;;
35602;SDS011;21725;50.836;4.368;2023-05-07T21:10:43;22.75;;;17.38;;
35602;SDS011;21725;50.836;4.368;2023-05-07T21:13:43;16.33;;;14.15;;
35602;SDS011;21725;50.836;4.368;2023-05-07T21:16:47;16.52;;;13.57;;
35602;SDS011;21725;50.836;4.368;2023-05-07T21:19:48;17.05;;;12.07;;
35602;SDS011;21725;50.836;4.368;2023-05-07T21:22:49;14.13;;;12.23;;
35602;SDS011;21725;50.836;4.368;2023-05-07T21:25:49;17.40;;;13.07;;
35602;SDS011;21725;50.836;4.368;2023-05-07T21:28:50;16.85;;;12.02;;
35602;SDS011;21725;50.836;4.368;2023-05-07T21:31:51;14.50;;;11.40;;
35602;SDS011;21725;50.836;4.368;2023-05-07T21:34:52;15.23;;;12.07;;
35602;SDS011;21725;50.836;4.368;2023-05-07T21:37:53;14.35;;;10.82;;
35602;SDS011;21725;50.836;4.368;2023-05-07T21:40:53;15.95;;;10.55;;
35602;SDS011;21725;50.836;4.368;2023-05-07T21:43:55;14.93;;;11.18;;
35602;SDS011;21725;50.836;4.368;2023-05-07T21:46:56;13.73;;;10.23;;
35602;SDS011;21725;50.836;4.368;2023-05-07T21:49:57;13.07;;;10.60;;
35602;SDS011;21725;50.836;4.368;2023-05-07T21:52:57;14.32;;;11.88;;
35602;SDS011;21725;50.836;4.368;2023-05-07T21:55:59;13.65;;;10.18;;
35602;SDS011;21725;50.836;4.368;2023-05-07T21:59:01;13.02;;;10.93;;
35602;SDS011;21725;50.836;4.368;2023-05-07T22:02:02;14.18;;;11.30;;
35602;SDS011;21725;50.836;4.368;2023-05-07T22:05:03;15.40;;;11.07;;
35602;SDS011;21725;50.836;4.368;2023-05-07T22:08:04;17.25;;;9.80;;
35602;SDS011;21725;50.836;4.368;2023-05-07T22:11:14;14.90;;;9.85;;
35602;SDS011;21725;50.836;4.368;2023-05-07T22:14:17;13.07;;;10.57;;
35602;SDS011;21725;50.836;4.368;2023-05-07T22:17:24;12.35;;;10.43;;
35602;SDS011;21725;50.836;4.368;2023-05-07T22:20:24;12.95;;;10.52;;
35602;SDS011;21725;50.836;4.368;2023-05-07T22:23:25;14.52;;;10.73;;
35602;SDS011;21725;50.836;4.368;2023-05-07T22:26:26;12.70;;;9.43;;
35602;SDS011;21725;50.836;4.368;2023-05-07T22:29:27;11.60;;;9.57;;
35602;SDS011;21725;50.836;4.368;2023-05-07T22:32:31;12.23;;;10.10;;
35602;SDS011;21725;50.836;4.368;2023-05-07T22:35:34;12.55;;;10.52;;
35602;SDS011;21725;50.836;4.368;2023-05-07T22:38:37;14.82;;;12.05;;
35602;SDS011;21725;50.836;4.368;2023-05-07T22:41:40;15.75;;;10.95;;
35602;SDS011;21725;50.836;4.368;2023-05-07T22:44:41;11.95;;;9.80;;
35602;SDS011;21725;50.836;4.368;2023-05-07T22:47:42;15.52;;;11.15;;
35602;SDS011;21725;50.836;4.368;2023-05-07T22:50:42;15.38;;;11.88;;
35602;SDS011;21725;50.836;4.368;2023-05-07T22:53:43;14.25;;;11.25;;
35602;SDS011;21725;50.836;4.368;2023-05-07T22:56:45;14.52;;;11.82;;
35602;SDS011;21725;50.836;4.368;2023-05-07T22:59:51;16.55;;;13.07;;